sensor_id;sensor_type;location;lat;lon;timestamp;P1;durP1;ratioP1;P2;durP2;ratioP2
64875;SDS011;51369;49.862;9.908;2023-07-22T00:01:05;6.07;;;3.30;;
64875;SDS011;51369;49.862;9.908;2023-07-22T00:03:31;4.03;;;3.20;;
64875;SDS011;51369;49.862;9.908;2023-07-22T00:06:03;3.42;;;3.08;;
64875;SDS011;51369;49.862;9.908;2023-07-22T00:08:32;3.28;;;2.97;;
64875;SDS011;51369;49.862;9.908;2023-07-22T00:10:58;7.22;;;3.70;;
64875;SDS011;51369;49.862;9.908;2023-07-22T00:13:24;3.28;;;2.97;;
64875;SDS011;51369;49.862;9.908;2023-07-22T00:15:52;3.72;;;2.95;;
64875;SDS011;51369;49.862;9.908;2023-07-22T00:18:18;4.07;;;3.22;;
64875;SDS011;51369;49.862;9.908;2023-07-22T00:20:44;6.13;;;3.00;;
64875;SDS011;51369;49.862;9.908;2023-07-22T00:23:09;3.60;;;3.28;;
64875;SDS011;51369;49.862;9.908;2023-07-22T00:25:35;3.47;;;3.10;;
64875;SDS011;51369;49.862;9.908;2023-07-22T00:28:01;3.17;;;2.88;;
64875;SDS011;51369;49.862;9.908;2023-07-22T00:30:26;6.15;;;3.42;;
64875;SDS011;51369;49.862;9.908;2023-07-22T00:32:53;4.55;;;3.58;;
64875;SDS011;51369;49.862;9.908;2023-07-22T00:35:19;5.07;;;3.83;;
64875;SDS011;51369;49.862;9.908;2023-07-22T00:37:45;6.18;;;3.70;;
64875;SDS011;51369;49.862;9.908;2023-07-22T00:40:10;3.22;;;3.00;;
64875;SDS011;51369;49.862;9.908;2023-07-22T00:42:37;3.33;;;3.05;;
64875;SDS011;51369;49.862;9.908;2023-07-22T00:45:03;3.92;;;3.17;;
64875;SDS011;51369;49.862;9.908;2023-07-22T00:47:28;5.43;;;3.67;;
64875;SDS011;51369;49.862;9.908;2023-07-22T00:49:54;6.30;;;3.30;;
64875;SDS011;51369;49.862;9.908;2023-07-22T00:52:20;3.78;;;3.17;;
64875;SDS011;51369;49.862;9.908;2023-07-22T00:54:45;5.68;;;3.60;;
64875;SDS011;51369;49.862;9.908;2023-07-22T00:57:11;3.97;;;3.30;;
64875;SDS011;51369;49.862;9.908;2023-07-22T00:59:37;4.43;;;3.47;;
64875;SDS011;51369;49.862;9.908;2023-07-22T01:02:04;4.55;;;3.45;;
64875;SDS011;51369;49.862;9.908;2023-07-22T01:04:30;7.43;;;3.58;;
64875;SDS011;51369;49.862;9.908;2023-07-22T01:06:58;4.47;;;3.63;;
64875;SDS011;51369;49.862;9.908;2023-07-22T01:09:26;4.60;;;3.33;;
64875;SDS011;51369;49.862;9.908;2023-07-22T01:14:23;7.60;;;3.70;;
64875;SDS011;51369;49.862;9.908;2023-07-22T01:16:50;5.15;;;3.47;;
64875;SDS011;51369;49.862;9.908;2023-07-22T01:19:16;3.20;;;2.90;;
64875;SDS011;51369;49.862;9.908;2023-07-22T01:21:43;4.68;;;3.00;;
64875;SDS011;51369;49.862;9.908;2023-07-22T01:24:11;3.67;;;3.38;;
64875;SDS011;51369;49.862;9.908;2023-07-22T01:26:37;5.20;;;3.42;;
64875;SDS011;51369;49.862;9.908;2023-07-22T01:29:06;5.00;;;3.70;;
64875;SDS011;51369;49.862;9.908;2023-07-22T01:31:33;6.30;;;3.78;;
64875;SDS011;51369;49.862;9.908;2023-07-22T01:34:00;7.28;;;3.53;;
64875;SDS011;51369;49.862;9.908;2023-07-22T01:36:26;6.78;;;3.60;;
64875;SDS011;51369;49.862;9.908;2023-07-22T01:38:51;3.65;;;3.10;;
64875;SDS011;51369;49.862;9.908;2023-07-22T01:41:17;5.00;;;3.20;;
64875;SDS011;51369;49.862;9.908;2023-07-22T01:43:42;4.68;;;3.10;;
64875;SDS011;51369;49.862;9.908;2023-07-22T01:46:07;3.90;;;3.50;;
64875;SDS011;51369;49.862;9.908;2023-07-22T01:48:33;4.90;;;3.25;;
64875;SDS011;51369;49.862;9.908;2023-07-22T01:50:58;4.13;;;3.30;;
64875;SDS011;51369;49.862;9.908;2023-07-22T01:53:24;4.47;;;3.03;;
64875;SDS011;51369;49.862;9.908;2023-07-22T01:55:49;6.50;;;3.72;;
64875;SDS011;51369;49.862;9.908;2023-07-22T01:58:15;5.00;;;3.25;;
64875;SDS011;51369;49.862;9.908;2023-07-22T02:00:40;4.00;;;3.40;;
64875;SDS011;51369;49.862;9.908;2023-07-22T02:03:05;3.60;;;3.30;;
64875;SDS011;51369;49.862;9.908;2023-07-22T02:05:31;7.40;;;4.15;;
64875;SDS011;51369;49.862;9.908;2023-07-22T02:07:56;3.47;;;3.17;;
64875;SDS011;51369;49.862;9.908;2023-07-22T02:10:22;5.00;;;3.55;;
64875;SDS011;51369;49.862;9.908;2023-07-22T02:12:47;5.15;;;3.55;;
64875;SDS011;51369;49.862;9.908;2023-07-22T02:15:13;3.40;;;3.00;;
64875;SDS011;51369;49.862;9.908;2023-07-22T02:17:38;5.82;;;3.75;;
64875;SDS011;51369;49.862;9.908;2023-07-22T02:20:04;5.72;;;3.13;;
64875;SDS011;51369;49.862;9.908;2023-07-22T02:22:30;3.70;;;3.40;;
64875;SDS011;51369;49.862;9.908;2023-07-22T02:24:56;4.95;;;3.63;;
64875;SDS011;51369;49.862;9.908;2023-07-22T02:27:21;7.32;;;4.00;;
64875;SDS011;51369;49.862;9.908;2023-07-22T02:29:46;4.82;;;3.58;;
64875;SDS011;51369;49.862;9.908;2023-07-22T02:32:12;4.32;;;3.38;;
64875;SDS011;51369;49.862;9.908;2023-07-22T02:34:37;4.38;;;3.42;;
64875;SDS011;51369;49.862;9.908;2023-07-22T02:37:02;4.22;;;3.67;;
64875;SDS011;51369;49.862;9.908;2023-07-22T02:39:29;4.97;;;3.15;;
64875;SDS011;51369;49.862;9.908;2023-07-22T02:41:55;4.88;;;4.00;;
64875;SDS011;51369;49.862;9.908;2023-07-22T02:44:20;5.90;;;3.53;;
64875;SDS011;51369;49.862;9.908;2023-07-22T02:46:45;3.50;;;3.20;;
64875;SDS011;51369;49.862;9.908;2023-07-22T02:49:11;4.40;;;3.33;;
64875;SDS011;51369;49.862;9.908;2023-07-22T02:51:36;4.68;;;3.20;;
64875;SDS011;51369;49.862;9.908;2023-07-22T02:54:02;6.28;;;3.83;;
64875;SDS011;51369;49.862;9.908;2023-07-22T02:56:28;4.40;;;3.63;;
64875;SDS011;51369;49.862;9.908;2023-07-22T02:58:54;6.07;;;3.75;;
64875;SDS011;51369;49.862;9.908;2023-07-22T03:01:20;4.18;;;3.72;;
64875;SDS011;51369;49.862;9.908;2023-07-22T03:03:45;4.28;;;3.60;;
64875;SDS011;51369;49.862;9.908;2023-07-22T03:06:11;4.35;;;3.53;;
64875;SDS011;51369;49.862;9.908;2023-07-22T03:08:36;5.03;;;3.55;;
64875;SDS011;51369;49.862;9.908;2023-07-22T03:11:02;3.80;;;3.45;;
64875;SDS011;51369;49.862;9.908;2023-07-22T03:13:28;6.10;;;3.70;;
64875;SDS011;51369;49.862;9.908;2023-07-22T03:15:55;4.07;;;3.40;;
64875;SDS011;51369;49.862;9.908;2023-07-22T03:18:21;5.25;;;3.03;;
64875;SDS011;51369;49.862;9.908;2023-07-22T03:20:46;6.25;;;3.70;;
64875;SDS011;51369;49.862;9.908;2023-07-22T03:23:11;3.65;;;3.20;;
64875;SDS011;51369;49.862;9.908;2023-07-22T03:25:37;5.90;;;3.85;;
64875;SDS011;51369;49.862;9.908;2023-07-22T03:28:03;8.15;;;3.55;;
64875;SDS011;51369;49.862;9.908;2023-07-22T03:30:30;3.53;;;3.20;;
64875;SDS011;51369;49.862;9.908;2023-07-22T03:32:56;5.43;;;3.75;;
64875;SDS011;51369;49.862;9.908;2023-07-22T03:35:22;3.80;;;3.42;;
64875;SDS011;51369;49.862;9.908;2023-07-22T03:37:47;6.05;;;3.42;;
64875;SDS011;51369;49.862;9.908;2023-07-22T03:40:13;7.25;;;3.60;;
64875;SDS011;51369;49.862;9.908;2023-07-22T03:42:41;4.07;;;3.53;;
64875;SDS011;51369;49.862;9.908;2023-07-22T03:45:07;4.15;;;3.50;;
64875;SDS011;51369;49.862;9.908;2023-07-22T03:47:34;6.00;;;4.03;;
64875;SDS011;51369;49.862;9.908;2023-07-22T03:50:00;6.50;;;4.13;;
64875;SDS011;51369;49.862;9.908;2023-07-22T03:52:25;8.20;;;3.92;;
64875;SDS011;51369;49.862;9.908;2023-07-22T03:54:50;9.43;;;4.00;;
64875;SDS011;51369;49.862;9.908;2023-07-22T03:57:16;5.53;;;3.72;;
64875;SDS011;51369;49.862;9.908;2023-07-22T03:59:41;11.02;;;4.47;;
64875;SDS011;51369;49.862;9.908;2023-07-22T04:02:06;5.22;;;4.20;;
64875;SDS011;51369;49.862;9.908;2023-07-22T04:04:32;7.28;;;3.80;;
64875;SDS011;51369;49.862;9.908;2023-07-22T04:06:57;4.38;;;3.97;;
64875;SDS011;51369;49.862;9.908;2023-07-22T04:09:23;5.28;;;3.90;;
64875;SDS011;51369;49.862;9.908;2023-07-22T04:11:48;4.47;;;3.63;;
64875;SDS011;51369;49.862;9.908;2023-07-22T04:14:14;6.18;;;3.53;;
64875;SDS011;51369;49.862;9.908;2023-07-22T04:16:39;5.63;;;3.53;;
64875;SDS011;51369;49.862;9.908;2023-07-22T04:19:05;9.07;;;3.63;;
64875;SDS011;51369;49.862;9.908;2023-07-22T04:21:30;4.30;;;3.90;;
64875;SDS011;51369;49.862;9.908;2023-07-22T04:23:55;7.25;;;4.10;;
64875;SDS011;51369;49.862;9.908;2023-07-22T04:26:21;7.03;;;3.97;;
64875;SDS011;51369;49.862;9.908;2023-07-22T04:28:46;6.47;;;3.75;;
64875;SDS011;51369;49.862;9.908;2023-07-22T04:31:11;7.63;;;4.60;;
64875;SDS011;51369;49.862;9.908;2023-07-22T04:33:37;5.15;;;4.10;;
64875;SDS011;51369;49.862;9.908;2023-07-22T04:36:02;7.95;;;4.20;;
64875;SDS011;51369;49.862;9.908;2023-07-22T04:38:28;4.47;;;3.50;;
64875;SDS011;51369;49.862;9.908;2023-07-22T04:40:53;4.05;;;3.65;;
64875;SDS011;51369;49.862;9.908;2023-07-22T04:43:19;6.35;;;3.90;;
64875;SDS011;51369;49.862;9.908;2023-07-22T04:45:45;7.55;;;3.40;;
64875;SDS011;51369;49.862;9.908;2023-07-22T04:48:13;3.85;;;3.53;;
64875;SDS011;51369;49.862;9.908;2023-07-22T04:50:41;5.63;;;3.83;;
64875;SDS011;51369;49.862;9.908;2023-07-22T04:53:09;4.43;;;4.00;;
64875;SDS011;51369;49.862;9.908;2023-07-22T04:55:35;9.88;;;3.92;;
64875;SDS011;51369;49.862;9.908;2023-07-22T04:58:01;3.90;;;3.40;;
64875;SDS011;51369;49.862;9.908;2023-07-22T05:00:26;6.07;;;4.28;;
64875;SDS011;51369;49.862;9.908;2023-07-22T05:02:53;10.75;;;4.00;;
64875;SDS011;51369;49.862;9.908;2023-07-22T05:05:21;5.28;;;4.38;;
64875;SDS011;51369;49.862;9.908;2023-07-22T05:07:47;6.22;;;4.00;;
64875;SDS011;51369;49.862;9.908;2023-07-22T05:10:14;4.72;;;4.18;;
64875;SDS011;51369;49.862;9.908;2023-07-22T05:12:41;5.70;;;3.72;;
64875;SDS011;51369;49.862;9.908;2023-07-22T05:15:07;7.78;;;4.30;;
64875;SDS011;51369;49.862;9.908;2023-07-22T05:17:33;4.78;;;3.67;;
64875;SDS011;51369;49.862;9.908;2023-07-22T05:19:58;5.80;;;4.38;;
64875;SDS011;51369;49.862;9.908;2023-07-22T05:22:24;6.10;;;4.22;;
64875;SDS011;51369;49.862;9.908;2023-07-22T05:24:50;4.28;;;3.88;;
64875;SDS011;51369;49.862;9.908;2023-07-22T05:27:16;8.80;;;5.07;;
64875;SDS011;51369;49.862;9.908;2023-07-22T05:29:42;5.35;;;4.50;;
64875;SDS011;51369;49.862;9.908;2023-07-22T05:32:07;9.25;;;4.57;;
64875;SDS011;51369;49.862;9.908;2023-07-22T05:34:33;7.38;;;4.28;;
64875;SDS011;51369;49.862;9.908;2023-07-22T05:36:58;5.10;;;3.70;;
64875;SDS011;51369;49.862;9.908;2023-07-22T05:39:24;4.85;;;3.60;;
64875;SDS011;51369;49.862;9.908;2023-07-22T05:41:50;5.97;;;3.88;;
64875;SDS011;51369;49.862;9.908;2023-07-22T05:44:15;4.05;;;3.65;;
64875;SDS011;51369;49.862;9.908;2023-07-22T05:46:41;7.80;;;4.80;;
64875;SDS011;51369;49.862;9.908;2023-07-22T05:49:07;6.43;;;3.97;;
64875;SDS011;51369;49.862;9.908;2023-07-22T05:51:32;5.15;;;4.18;;
64875;SDS011;51369;49.862;9.908;2023-07-22T05:53:58;8.43;;;4.78;;
64875;SDS011;51369;49.862;9.908;2023-07-22T05:56:24;5.00;;;4.10;;
64875;SDS011;51369;49.862;9.908;2023-07-22T05:58:49;6.88;;;4.90;;
64875;SDS011;51369;49.862;9.908;2023-07-22T06:01:14;6.88;;;4.45;;
64875;SDS011;51369;49.862;9.908;2023-07-22T06:03:40;7.57;;;5.25;;
64875;SDS011;51369;49.862;9.908;2023-07-22T06:06:06;5.88;;;4.60;;
64875;SDS011;51369;49.862;9.908;2023-07-22T06:08:31;9.23;;;4.95;;
64875;SDS011;51369;49.862;9.908;2023-07-22T06:10:57;7.70;;;4.65;;
64875;SDS011;51369;49.862;9.908;2023-07-22T06:13:22;8.70;;;5.53;;
64875;SDS011;51369;49.862;9.908;2023-07-22T06:15:47;9.48;;;4.90;;
64875;SDS011;51369;49.862;9.908;2023-07-22T06:18:13;7.20;;;5.32;;
64875;SDS011;51369;49.862;9.908;2023-07-22T06:20:38;7.47;;;4.78;;
64875;SDS011;51369;49.862;9.908;2023-07-22T06:23:04;6.60;;;5.40;;
64875;SDS011;51369;49.862;9.908;2023-07-22T06:25:29;10.10;;;5.60;;
64875;SDS011;51369;49.862;9.908;2023-07-22T06:27:54;7.28;;;5.70;;
64875;SDS011;51369;49.862;9.908;2023-07-22T06:30:20;7.50;;;5.25;;
64875;SDS011;51369;49.862;9.908;2023-07-22T06:32:45;6.80;;;4.95;;
64875;SDS011;51369;49.862;9.908;2023-07-22T06:35:11;9.50;;;5.65;;
64875;SDS011;51369;49.862;9.908;2023-07-22T06:37:36;11.50;;;5.47;;
64875;SDS011;51369;49.862;9.908;2023-07-22T06:40:02;9.40;;;5.20;;
64875;SDS011;51369;49.862;9.908;2023-07-22T06:42:29;5.80;;;4.65;;
64875;SDS011;51369;49.862;9.908;2023-07-22T06:44:55;6.63;;;4.65;;
64875;SDS011;51369;49.862;9.908;2023-07-22T06:47:20;7.35;;;5.03;;
64875;SDS011;51369;49.862;9.908;2023-07-22T06:49:46;5.63;;;4.43;;
64875;SDS011;51369;49.862;9.908;2023-07-22T06:52:11;7.43;;;4.40;;
64875;SDS011;51369;49.862;9.908;2023-07-22T06:54:36;5.90;;;4.63;;
64875;SDS011;51369;49.862;9.908;2023-07-22T06:57:02;8.77;;;5.05;;
64875;SDS011;51369;49.862;9.908;2023-07-22T06:59:27;6.35;;;4.88;;
64875;SDS011;51369;49.862;9.908;2023-07-22T07:01:53;6.72;;;4.90;;
64875;SDS011;51369;49.862;9.908;2023-07-22T07:04:19;6.70;;;5.22;;
64875;SDS011;51369;49.862;9.908;2023-07-22T07:06:44;5.53;;;4.68;;
64875;SDS011;51369;49.862;9.908;2023-07-22T07:09:11;6.70;;;4.93;;
64875;SDS011;51369;49.862;9.908;2023-07-22T07:11:36;6.63;;;4.70;;
64875;SDS011;51369;49.862;9.908;2023-07-22T07:14:02;6.07;;;4.15;;
64875;SDS011;51369;49.862;9.908;2023-07-22T07:16:30;5.40;;;4.55;;
64875;SDS011;51369;49.862;9.908;2023-07-22T07:18:59;8.50;;;4.32;;
64875;SDS011;51369;49.862;9.908;2023-07-22T07:21:26;7.00;;;4.68;;
64875;SDS011;51369;49.862;9.908;2023-07-22T07:23:52;7.30;;;4.65;;
64875;SDS011;51369;49.862;9.908;2023-07-22T07:26:18;8.63;;;4.47;;
64875;SDS011;51369;49.862;9.908;2023-07-22T07:28:45;6.47;;;4.63;;
64875;SDS011;51369;49.862;9.908;2023-07-22T07:31:12;7.57;;;4.30;;
64875;SDS011;51369;49.862;9.908;2023-07-22T07:33:38;5.93;;;4.43;;
64875;SDS011;51369;49.862;9.908;2023-07-22T07:36:03;5.18;;;3.90;;
64875;SDS011;51369;49.862;9.908;2023-07-22T07:38:29;5.13;;;4.30;;
64875;SDS011;51369;49.862;9.908;2023-07-22T07:40:55;4.32;;;3.92;;
64875;SDS011;51369;49.862;9.908;2023-07-22T07:43:23;7.25;;;4.45;;
64875;SDS011;51369;49.862;9.908;2023-07-22T07:45:49;5.30;;;4.50;;
64875;SDS011;51369;49.862;9.908;2023-07-22T07:48:15;7.07;;;4.68;;
64875;SDS011;51369;49.862;9.908;2023-07-22T07:50:41;4.68;;;4.13;;
64875;SDS011;51369;49.862;9.908;2023-07-22T07:53:07;6.13;;;3.95;;
64875;SDS011;51369;49.862;9.908;2023-07-22T07:55:33;5.32;;;4.07;;
64875;SDS011;51369;49.862;9.908;2023-07-22T07:57:58;7.22;;;3.92;;
64875;SDS011;51369;49.862;9.908;2023-07-22T08:00:24;5.85;;;4.40;;
64875;SDS011;51369;49.862;9.908;2023-07-22T08:02:49;5.80;;;3.90;;
64875;SDS011;51369;49.862;9.908;2023-07-22T08:05:15;4.82;;;3.60;;
64875;SDS011;51369;49.862;9.908;2023-07-22T08:07:41;5.82;;;4.32;;
64875;SDS011;51369;49.862;9.908;2023-07-22T08:10:06;4.88;;;4.15;;
64875;SDS011;51369;49.862;9.908;2023-07-22T08:12:32;5.65;;;3.92;;
64875;SDS011;51369;49.862;9.908;2023-07-22T08:14:58;4.20;;;3.38;;
64875;SDS011;51369;49.862;9.908;2023-07-22T08:17:24;3.92;;;3.30;;
64875;SDS011;51369;49.862;9.908;2023-07-22T08:19:49;3.63;;;3.13;;
64875;SDS011;51369;49.862;9.908;2023-07-22T08:22:15;6.35;;;3.60;;
64875;SDS011;51369;49.862;9.908;2023-07-22T08:24:40;5.30;;;3.75;;
64875;SDS011;51369;49.862;9.908;2023-07-22T08:27:06;4.30;;;3.50;;
64875;SDS011;51369;49.862;9.908;2023-07-22T08:29:31;5.63;;;3.33;;
64875;SDS011;51369;49.862;9.908;2023-07-22T08:31:57;7.32;;;3.78;;
64875;SDS011;51369;49.862;9.908;2023-07-22T08:34:23;5.50;;;3.92;;
64875;SDS011;51369;49.862;9.908;2023-07-22T08:36:48;4.32;;;3.33;;
64875;SDS011;51369;49.862;9.908;2023-07-22T08:39:14;4.50;;;3.72;;
64875;SDS011;51369;49.862;9.908;2023-07-22T08:41:39;8.93;;;4.32;;
64875;SDS011;51369;49.862;9.908;2023-07-22T08:44:08;6.35;;;3.58;;
64875;SDS011;51369;49.862;9.908;2023-07-22T08:46:35;7.03;;;3.45;;
64875;SDS011;51369;49.862;9.908;2023-07-22T08:49:04;4.00;;;3.45;;
64875;SDS011;51369;49.862;9.908;2023-07-22T08:51:31;3.47;;;3.17;;
64875;SDS011;51369;49.862;9.908;2023-07-22T08:53:57;5.60;;;2.88;;
64875;SDS011;51369;49.862;9.908;2023-07-22T08:56:24;5.90;;;3.33;;
64875;SDS011;51369;49.862;9.908;2023-07-22T08:58:53;4.88;;;3.58;;
64875;SDS011;51369;49.862;9.908;2023-07-22T09:01:20;3.50;;;3.10;;
64875;SDS011;51369;49.862;9.908;2023-07-22T09:03:46;4.35;;;3.35;;
64875;SDS011;51369;49.862;9.908;2023-07-22T09:06:13;5.22;;;3.47;;
64875;SDS011;51369;49.862;9.908;2023-07-22T09:08:39;4.63;;;2.90;;
64875;SDS011;51369;49.862;9.908;2023-07-22T09:11:04;5.93;;;2.78;;
64875;SDS011;51369;49.862;9.908;2023-07-22T09:13:31;3.42;;;2.97;;
64875;SDS011;51369;49.862;9.908;2023-07-22T09:15:58;3.85;;;2.92;;
64875;SDS011;51369;49.862;9.908;2023-07-22T09:18:24;2.95;;;2.63;;
64875;SDS011;51369;49.862;9.908;2023-07-22T09:20:51;4.03;;;2.92;;
64875;SDS011;51369;49.862;9.908;2023-07-22T09:23:16;4.68;;;3.20;;
64875;SDS011;51369;49.862;9.908;2023-07-22T09:25:43;5.25;;;3.60;;
64875;SDS011;51369;49.862;9.908;2023-07-22T09:28:09;5.05;;;3.15;;
64875;SDS011;51369;49.862;9.908;2023-07-22T09:30:38;4.32;;;2.95;;
64875;SDS011;51369;49.862;9.908;2023-07-22T09:33:05;7.35;;;3.58;;
64875;SDS011;51369;49.862;9.908;2023-07-22T09:35:45;4.15;;;3.03;;
64875;SDS011;51369;49.862;9.908;2023-07-22T09:38:11;5.82;;;3.10;;
64875;SDS011;51369;49.862;9.908;2023-07-22T09:40:39;4.22;;;3.03;;
64875;SDS011;51369;49.862;9.908;2023-07-22T09:43:05;4.25;;;3.28;;
64875;SDS011;51369;49.862;9.908;2023-07-22T09:45:31;4.60;;;3.35;;
64875;SDS011;51369;49.862;9.908;2023-07-22T09:47:57;6.45;;;4.15;;
64875;SDS011;51369;49.862;9.908;2023-07-22T09:50:24;4.03;;;3.35;;
64875;SDS011;51369;49.862;9.908;2023-07-22T09:52:54;10.00;;;4.45;;
64875;SDS011;51369;49.862;9.908;2023-07-22T09:55:23;6.85;;;3.78;;
64875;SDS011;51369;49.862;9.908;2023-07-22T09:57:50;3.63;;;3.10;;
64875;SDS011;51369;49.862;9.908;2023-07-22T10:00:35;4.97;;;2.90;;
64875;SDS011;51369;49.862;9.908;2023-07-22T10:03:02;3.53;;;3.22;;
64875;SDS011;51369;49.862;9.908;2023-07-22T10:05:33;4.93;;;3.28;;
64875;SDS011;51369;49.862;9.908;2023-07-22T10:07:59;4.25;;;3.15;;
64875;SDS011;51369;49.862;9.908;2023-07-22T10:10:30;4.85;;;3.33;;
64875;SDS011;51369;49.862;9.908;2023-07-22T10:12:57;5.63;;;2.88;;
64875;SDS011;51369;49.862;9.908;2023-07-22T10:15:28;4.85;;;3.15;;
64875;SDS011;51369;49.862;9.908;2023-07-22T10:17:55;5.65;;;3.30;;
64875;SDS011;51369;49.862;9.908;2023-07-22T10:20:21;4.75;;;3.20;;
64875;SDS011;51369;49.862;9.908;2023-07-22T10:22:48;4.63;;;3.55;;
64875;SDS011;51369;49.862;9.908;2023-07-22T10:25:15;5.95;;;3.47;;
64875;SDS011;51369;49.862;9.908;2023-07-22T10:27:42;6.45;;;3.28;;
64875;SDS011;51369;49.862;9.908;2023-07-22T10:30:09;6.45;;;2.90;;
64875;SDS011;51369;49.862;9.908;2023-07-22T10:32:36;6.40;;;3.03;;
64875;SDS011;51369;49.862;9.908;2023-07-22T10:35:12;7.40;;;2.95;;
64875;SDS011;51369;49.862;9.908;2023-07-22T10:38:10;3.88;;;2.88;;
64875;SDS011;51369;49.862;9.908;2023-07-22T10:40:44;4.97;;;2.97;;
64875;SDS011;51369;49.862;9.908;2023-07-22T10:43:10;3.85;;;3.13;;
64875;SDS011;51369;49.862;9.908;2023-07-22T10:45:42;3.67;;;2.88;;
64875;SDS011;51369;49.862;9.908;2023-07-22T10:48:10;3.38;;;2.95;;
64875;SDS011;51369;49.862;9.908;2023-07-22T10:50:40;3.30;;;2.58;;
64875;SDS011;51369;49.862;9.908;2023-07-22T10:56:02;4.47;;;2.90;;
64875;SDS011;51369;49.862;9.908;2023-07-22T10:58:29;3.10;;;2.70;;
64875;SDS011;51369;49.862;9.908;2023-07-22T11:00:56;3.15;;;2.80;;
64875;SDS011;51369;49.862;9.908;2023-07-22T11:03:21;6.82;;;3.13;;
64875;SDS011;51369;49.862;9.908;2023-07-22T11:05:48;6.93;;;2.53;;
64875;SDS011;51369;49.862;9.908;2023-07-22T11:08:15;5.32;;;2.83;;
64875;SDS011;51369;49.862;9.908;2023-07-22T11:10:53;5.57;;;3.08;;
64875;SDS011;51369;49.862;9.908;2023-07-22T11:13:26;5.03;;;2.80;;
64875;SDS011;51369;49.862;9.908;2023-07-22T11:15:53;3.75;;;2.97;;
64875;SDS011;51369;49.862;9.908;2023-07-22T11:18:22;4.45;;;2.65;;
64875;SDS011;51369;49.862;9.908;2023-07-22T11:20:52;3.95;;;2.72;;
64875;SDS011;51369;49.862;9.908;2023-07-22T11:23:18;10.45;;;3.35;;
64875;SDS011;51369;49.862;9.908;2023-07-22T11:25:44;3.47;;;2.80;;
64875;SDS011;51369;49.862;9.908;2023-07-22T11:28:13;3.95;;;2.78;;
64875;SDS011;51369;49.862;9.908;2023-07-22T11:30:39;12.40;;;2.92;;
64875;SDS011;51369;49.862;9.908;2023-07-22T11:33:05;4.68;;;3.13;;
64875;SDS011;51369;49.862;9.908;2023-07-22T11:35:30;3.45;;;2.75;;
64875;SDS011;51369;49.862;9.908;2023-07-22T11:38:05;7.68;;;3.40;;
64875;SDS011;51369;49.862;9.908;2023-07-22T11:40:33;7.38;;;2.97;;
64875;SDS011;51369;49.862;9.908;2023-07-22T11:42:59;3.35;;;3.05;;
64875;SDS011;51369;49.862;9.908;2023-07-22T11:45:25;3.95;;;2.97;;
64875;SDS011;51369;49.862;9.908;2023-07-22T11:47:50;4.03;;;3.20;;
64875;SDS011;51369;49.862;9.908;2023-07-22T11:50:16;6.50;;;3.50;;
64875;SDS011;51369;49.862;9.908;2023-07-22T11:52:41;3.92;;;2.80;;
64875;SDS011;51369;49.862;9.908;2023-07-22T11:55:07;6.22;;;3.08;;
64875;SDS011;51369;49.862;9.908;2023-07-22T11:57:32;3.83;;;3.05;;
64875;SDS011;51369;49.862;9.908;2023-07-22T11:59:57;4.55;;;3.13;;
64875;SDS011;51369;49.862;9.908;2023-07-22T12:02:27;4.70;;;3.17;;
64875;SDS011;51369;49.862;9.908;2023-07-22T12:05:01;3.80;;;2.90;;
64875;SDS011;51369;49.862;9.908;2023-07-22T12:07:28;6.32;;;2.97;;
64875;SDS011;51369;49.862;9.908;2023-07-22T12:09:56;4.50;;;3.20;;
64875;SDS011;51369;49.862;9.908;2023-07-22T12:12:32;3.90;;;3.25;;
64875;SDS011;51369;49.862;9.908;2023-07-22T12:15:02;5.65;;;2.83;;
64875;SDS011;51369;49.862;9.908;2023-07-22T12:18:22;6.70;;;3.38;;
64875;SDS011;51369;49.862;9.908;2023-07-22T12:20:30;4.72;;;3.47;;
64875;SDS011;51369;49.862;9.908;2023-07-22T12:22:57;5.07;;;3.28;;
64875;SDS011;51369;49.862;9.908;2023-07-22T12:25:23;4.68;;;3.40;;
64875;SDS011;51369;49.862;9.908;2023-07-22T12:27:48;4.32;;;3.22;;
64875;SDS011;51369;49.862;9.908;2023-07-22T12:30:15;3.70;;;2.80;;
64875;SDS011;51369;49.862;9.908;2023-07-22T12:32:41;5.38;;;3.78;;
64875;SDS011;51369;49.862;9.908;2023-07-22T12:35:06;8.68;;;3.80;;
64875;SDS011;51369;49.862;9.908;2023-07-22T12:37:32;4.93;;;3.28;;
64875;SDS011;51369;49.862;9.908;2023-07-22T12:39:58;3.85;;;3.50;;
64875;SDS011;51369;49.862;9.908;2023-07-22T12:42:23;3.60;;;3.25;;
64875;SDS011;51369;49.862;9.908;2023-07-22T12:44:48;3.90;;;3.10;;
64875;SDS011;51369;49.862;9.908;2023-07-22T12:47:14;6.35;;;3.33;;
64875;SDS011;51369;49.862;9.908;2023-07-22T12:49:39;3.80;;;3.17;;
64875;SDS011;51369;49.862;9.908;2023-07-22T12:52:05;5.75;;;3.22;;
64875;SDS011;51369;49.862;9.908;2023-07-22T12:54:35;7.65;;;3.70;;
64875;SDS011;51369;49.862;9.908;2023-07-22T12:57:00;4.82;;;3.20;;
64875;SDS011;51369;49.862;9.908;2023-07-22T12:59:26;6.72;;;3.13;;
64875;SDS011;51369;49.862;9.908;2023-07-22T13:01:52;5.25;;;3.42;;
64875;SDS011;51369;49.862;9.908;2023-07-22T13:04:17;8.25;;;3.92;;
64875;SDS011;51369;49.862;9.908;2023-07-22T13:06:42;3.70;;;3.20;;
64875;SDS011;51369;49.862;9.908;2023-07-22T13:09:08;4.30;;;3.35;;
64875;SDS011;51369;49.862;9.908;2023-07-22T13:11:34;3.15;;;2.85;;
64875;SDS011;51369;49.862;9.908;2023-07-22T13:14:00;6.13;;;3.55;;
64875;SDS011;51369;49.862;9.908;2023-07-22T13:16:26;4.55;;;3.38;;
64875;SDS011;51369;49.862;9.908;2023-07-22T13:18:51;3.63;;;2.97;;
64875;SDS011;51369;49.862;9.908;2023-07-22T13:21:17;6.07;;;3.42;;
64875;SDS011;51369;49.862;9.908;2023-07-22T13:23:42;3.90;;;3.17;;
64875;SDS011;51369;49.862;9.908;2023-07-22T13:26:07;6.32;;;3.25;;
64875;SDS011;51369;49.862;9.908;2023-07-22T13:28:33;5.47;;;3.13;;
64875;SDS011;51369;49.862;9.908;2023-07-22T13:30:58;7.90;;;3.47;;
64875;SDS011;51369;49.862;9.908;2023-07-22T13:33:23;4.15;;;2.92;;
64875;SDS011;51369;49.862;9.908;2023-07-22T13:35:49;5.35;;;2.88;;
64875;SDS011;51369;49.862;9.908;2023-07-22T13:38:15;4.03;;;2.80;;
64875;SDS011;51369;49.862;9.908;2023-07-22T13:40:41;4.32;;;3.10;;
64875;SDS011;51369;49.862;9.908;2023-07-22T13:43:06;4.00;;;3.17;;
64875;SDS011;51369;49.862;9.908;2023-07-22T13:45:32;3.38;;;2.78;;
64875;SDS011;51369;49.862;9.908;2023-07-22T13:47:57;5.88;;;2.50;;
64875;SDS011;51369;49.862;9.908;2023-07-22T13:50:22;3.08;;;2.50;;
64875;SDS011;51369;49.862;9.908;2023-07-22T13:52:49;6.82;;;2.85;;
64875;SDS011;51369;49.862;9.908;2023-07-22T13:55:14;2.88;;;2.58;;
64875;SDS011;51369;49.862;9.908;2023-07-22T13:57:40;5.70;;;2.80;;
64875;SDS011;51369;49.862;9.908;2023-07-22T14:00:05;2.90;;;2.60;;
64875;SDS011;51369;49.862;9.908;2023-07-22T14:02:37;5.13;;;2.75;;
64875;SDS011;51369;49.862;9.908;2023-07-22T14:05:03;4.65;;;2.80;;
64875;SDS011;51369;49.862;9.908;2023-07-22T14:07:29;5.00;;;2.60;;
64875;SDS011;51369;49.862;9.908;2023-07-22T14:09:54;2.60;;;2.40;;
64875;SDS011;51369;49.862;9.908;2023-07-22T14:12:20;6.88;;;2.50;;
64875;SDS011;51369;49.862;9.908;2023-07-22T14:14:45;2.60;;;2.40;;
64875;SDS011;51369;49.862;9.908;2023-07-22T14:17:11;4.05;;;2.83;;
64875;SDS011;51369;49.862;9.908;2023-07-22T14:19:37;3.33;;;2.40;;
64875;SDS011;51369;49.862;9.908;2023-07-22T14:22:02;2.75;;;2.47;;
64875;SDS011;51369;49.862;9.908;2023-07-22T14:24:29;3.35;;;2.38;;
64875;SDS011;51369;49.862;9.908;2023-07-22T14:26:54;7.35;;;2.55;;
64875;SDS011;51369;49.862;9.908;2023-07-22T14:29:20;3.28;;;2.28;;
64875;SDS011;51369;49.862;9.908;2023-07-22T14:31:46;4.20;;;2.75;;
64875;SDS011;51369;49.862;9.908;2023-07-22T14:34:11;6.40;;;2.58;;
64875;SDS011;51369;49.862;9.908;2023-07-22T14:36:37;5.00;;;2.58;;
64875;SDS011;51369;49.862;9.908;2023-07-22T14:39:02;3.53;;;2.47;;
64875;SDS011;51369;49.862;9.908;2023-07-22T14:41:29;5.00;;;2.47;;
64875;SDS011;51369;49.862;9.908;2023-07-22T14:43:55;2.95;;;2.65;;
64875;SDS011;51369;49.862;9.908;2023-07-22T14:46:20;4.97;;;2.70;;
64875;SDS011;51369;49.862;9.908;2023-07-22T14:48:45;2.50;;;2.30;;